Portada
METAR-TAF:

METAR-TAF

Aeroports :

Rio Branco, Acre, Brasil

latitud: 10-00S, longitud: 067-48W, altitud: 142 m

Observació

L'informe es va fer fa 27 minuts, a les 16:00 UTC
Vent 8 kt del Nord-Oest
Temperatura 29°C
Humitat 66%
Pressió 1012 hPa
Visibilitat 10 km o més
Cel ennuvolat a una alçada de 3300 ft

METAR: SBRB 251600Z 31008KT 9999 BKN033 29/22 Q1012

Hora: 11:27 (16:27 UTC)

Pronòstic

L'informe es va fer fa 6 hores i 57 minuts, a les 09:30 UTC
Pronòstic vàlid del 25 a les 12 UTC al 25 a les 24 UTC
Vent 5 kt del Oest/Sud-Oest
Visibilitat 10 km o més
Núvols disperses a una alçada de 4000 ft
Evolucionant progressivament
l' 25 a les 14 UTC al 25 a les 16 UTC
Vent 10 kt del Nord-Oest
Evolucionant progressivament
l' 25 a les 20 UTC al 25 a les 22 UTC
Vent 5 kt del Nord/Nord-Est
Escasses núvols a una alçada de 3000 ft

TAF: SBRB 250930Z 2512/2524 25005KT 9999 SCT040 TN24/2512Z TX28/2518Z BECMG 2514/2516 32010KT BECMG 2520/2522 02005KT FEW030 RMK PGB

Observacions i pronòstics meteorològics de més de 4000 aeroports (METAR i TAF).

Les estacions disponibles són els punts grocs i vermells al mapa.

Posi el ratolí al punt desitjat per veure el nom de l'estació.

Feu clic per veure les observacions i els pronòstics meteorològics.

Per canviar el mapa: feu clic els botons verds amb una creu de color negre per apropar; al botó verd amb un guió per allunyar la imatge; o en les fletxes verdes per a mapes adjacents.


METAR-TAF: